createdAt,value
2016-12-07T00:00:21.632Z,1025.86
2016-12-07T00:01:21.616Z,1025.87
2016-12-07T00:02:21.595Z,1025.86
2016-12-07T00:03:21.582Z,1025.88
2016-12-07T00:04:21.562Z,1025.87
2016-12-07T00:05:21.545Z,1025.86
2016-12-07T00:06:21.529Z,1025.86
2016-12-07T00:07:21.511Z,1025.89
2016-12-07T00:08:21.494Z,1025.82
2016-12-07T00:09:21.473Z,1025.82
2016-12-07T00:10:21.459Z,1025.82
2016-12-07T00:11:21.442Z,1025.8
2016-12-07T00:12:21.425Z,1025.8
2016-12-07T00:13:21.409Z,1025.77
2016-12-07T00:14:21.390Z,1025.79
2016-12-07T00:15:21.377Z,1025.74
2016-12-07T00:16:21.356Z,1025.73
2016-12-07T00:17:21.341Z,1025.76
2016-12-07T00:18:21.324Z,1025.77
2016-12-07T00:19:21.305Z,1025.69
2016-12-07T00:20:21.287Z,1025.66
2016-12-07T00:21:21.270Z,1025.64
2016-12-07T00:22:21.255Z,1025.62
2016-12-07T00:23:21.237Z,1025.59
2016-12-07T00:24:21.217Z,1025.64
2016-12-07T00:25:21.202Z,1025.64
2016-12-07T00:26:21.185Z,1025.64
2016-12-07T00:27:21.168Z,1025.58
2016-12-07T00:28:21.151Z,1025.54
2016-12-07T00:29:21.134Z,1025.58
2016-12-07T00:30:21.117Z,1025.54
2016-12-07T00:31:21.100Z,1025.54
2016-12-07T00:32:21.083Z,1025.55
2016-12-07T00:33:21.066Z,1025.53
2016-12-07T00:34:21.050Z,1025.53
2016-12-07T00:35:21.035Z,1025.53
2016-12-07T00:36:21.019Z,1025.57
2016-12-07T00:37:20.997Z,1025.53
2016-12-07T00:38:20.981Z,1025.53
2016-12-07T00:39:20.963Z,1025.52
2016-12-07T00:40:20.947Z,1025.42
2016-12-07T00:41:20.929Z,1025.45
2016-12-07T00:42:20.912Z,1025.51
2016-12-07T00:43:20.894Z,1025.45
2016-12-07T00:44:20.877Z,1025.43
2016-12-07T00:45:20.860Z,1025.49
2016-12-07T00:46:20.853Z,1025.47
2016-12-07T00:47:20.826Z,1025.48
2016-12-07T00:48:20.809Z,1025.48
2016-12-07T00:49:20.791Z,1025.53
2016-12-07T00:50:20.775Z,1025.56
2016-12-07T00:51:20.758Z,1025.55
2016-12-07T00:52:20.741Z,1025.51
2016-12-07T00:53:20.724Z,1025.51
2016-12-07T00:54:20.707Z,1025.47
2016-12-07T00:55:20.692Z,1025.48
2016-12-07T00:56:20.673Z,1025.48
2016-12-07T00:57:20.656Z,1025.5
2016-12-07T00:58:20.639Z,1025.47
2016-12-07T00:59:20.624Z,1025.44
2016-12-07T01:00:20.604Z,1025.42
2016-12-07T01:01:20.588Z,1025.45
2016-12-07T01:02:20.571Z,1025.45
2016-12-07T01:03:20.554Z,1025.39
2016-12-07T01:04:20.537Z,1025.43
2016-12-07T01:05:20.520Z,1025.43
2016-12-07T01:06:20.503Z,1025.42
2016-12-07T01:07:20.488Z,1025.45
2016-12-07T01:08:20.469Z,1025.46
2016-12-07T01:09:20.459Z,1025.42
2016-12-07T01:10:20.437Z,1025.4
2016-12-07T01:11:20.468Z,1025.45
2016-12-07T01:12:20.401Z,1025.47
2016-12-07T01:13:20.384Z,1025.46
2016-12-07T01:14:20.369Z,1025.47
2016-12-07T01:15:20.350Z,1025.49
2016-12-07T01:16:20.334Z,1025.55
2016-12-07T01:17:20.316Z,1025.56
2016-12-07T01:18:20.299Z,1025.57
2016-12-07T01:19:20.282Z,1025.56
2016-12-07T01:20:20.267Z,1025.56
2016-12-07T01:21:20.251Z,1025.55
2016-12-07T01:22:20.231Z,1025.55
2016-12-07T01:23:20.213Z,1025.53
2016-12-07T01:24:20.200Z,1025.48
2016-12-07T01:25:20.179Z,1025.44
2016-12-07T01:26:20.160Z,1025.42
2016-12-07T01:27:20.145Z,1025.38
2016-12-07T01:28:20.132Z,1025.39
2016-12-07T01:29:20.115Z,1025.39
2016-12-07T01:30:20.092Z,1025.36
2016-12-07T01:31:20.077Z,1025.39
2016-12-07T01:32:20.060Z,1025.41
2016-12-07T01:33:20.043Z,1025.48
2016-12-07T01:34:20.026Z,1025.47
2016-12-07T01:35:20.009Z,1025.48
2016-12-07T01:36:19.992Z,1025.51
2016-12-07T01:37:19.979Z,1025.53
2016-12-07T01:38:19.960Z,1025.59
2016-12-07T01:39:19.943Z,1025.61
2016-12-07T01:40:19.924Z,1025.57
2016-12-07T01:41:19.904Z,1025.6
2016-12-07T01:42:19.891Z,1025.63
2016-12-07T01:43:19.872Z,1025.64
2016-12-07T01:44:19.855Z,1025.64
2016-12-07T01:45:19.835Z,1025.56
2016-12-07T01:46:19.820Z,1025.6
2016-12-07T01:47:19.801Z,1025.57
2016-12-07T01:48:19.783Z,1025.58
2016-12-07T01:49:19.772Z,1025.61
2016-12-07T01:50:19.748Z,1025.68
2016-12-07T01:51:19.731Z,1025.75
2016-12-07T01:52:19.714Z,1025.69
2016-12-07T01:53:19.697Z,1025.76
2016-12-07T01:54:19.685Z,1025.74
2016-12-07T01:55:19.662Z,1025.74
2016-12-07T01:56:19.648Z,1025.7
2016-12-07T01:57:19.627Z,1025.66
2016-12-07T01:58:19.611Z,1025.69
2016-12-07T01:59:19.593Z,1025.72
2016-12-07T02:00:19.573Z,1025.68
2016-12-07T02:01:19.558Z,1025.73
2016-12-07T02:02:19.540Z,1025.79
2016-12-07T02:03:19.521Z,1025.81
2016-12-07T02:04:19.502Z,1025.85
2016-12-07T02:05:19.488Z,1025.87
2016-12-07T02:06:19.473Z,1025.82
2016-12-07T02:07:19.452Z,1025.84
2016-12-07T02:08:19.438Z,1025.79
2016-12-07T02:09:19.417Z,1025.75
2016-12-07T02:10:19.400Z,1025.79
2016-12-07T02:11:19.383Z,1025.71
2016-12-07T02:12:19.365Z,1025.65
2016-12-07T02:13:19.352Z,1025.62
2016-12-07T02:14:19.331Z,1025.58
2016-12-07T02:15:19.311Z,1025.6
2016-12-07T02:16:19.325Z,1025.56
2016-12-07T02:17:19.277Z,1025.57
2016-12-07T02:18:19.260Z,1025.59
2016-12-07T02:19:19.242Z,1025.62
2016-12-07T02:20:19.225Z,1025.62
2016-12-07T02:21:19.208Z,1025.63
2016-12-07T02:22:19.193Z,1025.66
2016-12-07T02:23:19.176Z,1025.65
2016-12-07T02:24:19.156Z,1025.62
2016-12-07T02:25:19.140Z,1025.53
2016-12-07T02:26:19.123Z,1025.56
2016-12-07T02:27:19.105Z,1025.55
2016-12-07T02:28:19.086Z,1025.53
2016-12-07T02:29:19.069Z,1025.58
2016-12-07T02:30:19.055Z,1025.6
2016-12-07T02:31:19.034Z,1025.61
2016-12-07T02:32:19.020Z,1025.6
2016-12-07T02:33:19.000Z,1025.54
2016-12-07T02:34:18.985Z,1025.51
2016-12-07T02:35:18.968Z,1025.57
2016-12-07T02:36:18.949Z,1025.51
2016-12-07T02:37:18.936Z,1025.47
2016-12-07T02:38:18.914Z,1025.46
2016-12-07T02:39:18.895Z,1025.47
2016-12-07T02:40:18.878Z,1025.4
2016-12-07T02:41:18.861Z,1025.42
2016-12-07T02:42:18.846Z,1025.46
2016-12-07T02:43:18.827Z,1025.44
2016-12-07T02:44:18.816Z,1025.4
2016-12-07T02:45:18.793Z,1025.37
2016-12-07T02:46:18.776Z,1025.46
2016-12-07T02:47:18.759Z,1025.46
2016-12-07T02:48:18.742Z,1025.53
2016-12-07T02:49:18.726Z,1025.52
2016-12-07T02:50:18.705Z,1025.59
2016-12-07T02:51:18.688Z,1025.59
2016-12-07T02:52:18.672Z,1025.57
2016-12-07T02:53:18.653Z,1025.6
2016-12-07T02:54:18.637Z,1025.57
2016-12-07T02:55:18.619Z,1025.62
2016-12-07T02:56:18.603Z,1025.58
2016-12-07T02:57:18.585Z,1025.58
2016-12-07T02:58:18.566Z,1025.54
2016-12-07T02:59:18.551Z,1025.51
2016-12-07T03:00:18.534Z,1025.53
2016-12-07T03:01:18.519Z,1025.51
2016-12-07T03:02:18.497Z,1025.52
2016-12-07T03:03:18.480Z,1025.56
2016-12-07T03:04:18.463Z,1025.59
2016-12-07T03:05:18.445Z,1025.54
2016-12-07T03:06:18.431Z,1025.57
2016-12-07T03:07:18.412Z,1025.57
2016-12-07T03:08:18.394Z,1025.53
2016-12-07T03:09:18.377Z,1025.53
2016-12-07T03:10:18.360Z,1025.52
2016-12-07T03:11:18.343Z,1025.51
2016-12-07T03:12:18.324Z,1025.49
2016-12-07T03:13:18.309Z,1025.48
2016-12-07T03:14:18.290Z,1025.44
2016-12-07T03:15:18.272Z,1025.41
2016-12-07T03:16:18.255Z,1025.41
2016-12-07T03:17:18.239Z,1025.4
2016-12-07T03:18:18.221Z,1025.38
2016-12-07T03:19:18.202Z,1025.39
2016-12-07T03:20:18.185Z,1025.42
2016-12-07T03:21:18.170Z,1025.38
2016-12-07T03:22:18.150Z,1025.4
2016-12-07T03:23:18.133Z,1025.4
2016-12-07T03:24:18.116Z,1025.4
2016-12-07T03:25:18.099Z,1025.37
2016-12-07T03:26:18.082Z,1025.38
2016-12-07T03:27:18.063Z,1025.34
2016-12-07T03:28:18.045Z,1025.34
2016-12-07T03:29:18.028Z,1025.35
2016-12-07T03:30:18.011Z,1025.27
2016-12-07T03:31:17.994Z,1025.25
2016-12-07T03:32:17.977Z,1025.23
2016-12-07T03:33:17.960Z,1025.21
2016-12-07T03:34:17.940Z,1025.13
2016-12-07T03:35:17.925Z,1025.15
2016-12-07T03:36:17.906Z,1025.17
2016-12-07T03:37:17.893Z,1025.11
2016-12-07T03:38:17.874Z,1025.14
2016-12-07T03:39:17.858Z,1025.15
2016-12-07T03:40:17.838Z,1025.16
2016-12-07T03:41:17.819Z,1025.16
2016-12-07T03:42:17.806Z,1025.14
2016-12-07T03:43:17.786Z,1025.11
2016-12-07T03:44:17.769Z,1025.12
2016-12-07T03:45:17.750Z,1025.14
2016-12-07T03:46:17.733Z,1025.09
2016-12-07T03:47:17.718Z,1025.08
2016-12-07T03:48:17.698Z,1025.02
2016-12-07T03:49:17.684Z,1025.07
2016-12-07T03:50:17.664Z,1025.07
2016-12-07T03:51:17.646Z,1025.08
2016-12-07T03:52:17.628Z,1025.05
2016-12-07T03:53:17.611Z,1025.07
2016-12-07T03:54:17.595Z,1025.06
2016-12-07T03:55:17.576Z,1025.06
2016-12-07T03:56:17.558Z,1025.07
2016-12-07T03:57:17.542Z,1025.04
2016-12-07T03:58:17.525Z,1025.05
2016-12-07T03:59:17.507Z,1025.06
2016-12-07T04:00:17.490Z,1025.07
2016-12-07T04:01:17.476Z,1025.01
2016-12-07T04:02:17.456Z,1025.01
2016-12-07T04:03:17.437Z,1025.02
2016-12-07T04:04:17.422Z,1025.01
2016-12-07T04:05:17.403Z,1024.97
2016-12-07T04:06:17.386Z,1024.92
2016-12-07T04:07:17.371Z,1024.93
2016-12-07T04:08:17.351Z,1024.92
2016-12-07T04:09:17.334Z,1024.9
2016-12-07T04:10:17.316Z,1024.88
2016-12-07T04:11:17.296Z,1024.78
2016-12-07T04:12:17.280Z,1024.77
2016-12-07T04:13:17.267Z,1024.75
2016-12-07T04:14:17.246Z,1024.71
2016-12-07T04:15:17.231Z,1024.71
2016-12-07T04:16:17.211Z,1024.75
2016-12-07T04:17:17.194Z,1024.72
2016-12-07T04:18:17.181Z,1024.73
2016-12-07T04:19:17.161Z,1024.72
2016-12-07T04:20:17.147Z,1024.72
2016-12-07T04:21:17.126Z,1024.73
2016-12-07T04:22:17.106Z,1024.72
2016-12-07T04:23:17.089Z,1024.69
2016-12-07T04:24:17.072Z,1024.72
2016-12-07T04:25:17.058Z,1024.66
2016-12-07T04:26:17.037Z,1024.66
2016-12-07T04:27:17.020Z,1024.63
2016-12-07T04:28:17.002Z,1024.64
2016-12-07T04:29:16.986Z,1024.62
2016-12-07T04:30:16.967Z,1024.64
2016-12-07T04:31:16.952Z,1024.63
2016-12-07T04:32:16.939Z,1024.61
2016-12-07T04:33:16.915Z,1024.57
2016-12-07T04:34:16.950Z,1024.6
2016-12-07T04:35:16.883Z,1024.58
2016-12-07T04:36:16.866Z,1024.54
2016-12-07T04:37:16.848Z,1024.54
2016-12-07T04:38:16.829Z,1024.54
2016-12-07T04:39:16.814Z,1024.55
2016-12-07T04:40:16.795Z,1024.58
2016-12-07T04:41:16.778Z,1024.58
2016-12-07T04:42:16.763Z,1024.52
2016-12-07T04:43:16.743Z,1024.55
2016-12-07T04:44:16.728Z,1024.51
2016-12-07T04:45:16.709Z,1024.53
2016-12-07T04:46:16.692Z,1024.51
2016-12-07T04:47:16.673Z,1024.46
2016-12-07T04:48:16.657Z,1024.46
2016-12-07T04:49:16.640Z,1024.43
2016-12-07T04:50:16.623Z,1024.47
2016-12-07T04:51:16.604Z,1024.43
2016-12-07T04:52:16.586Z,1024.47
2016-12-07T04:53:16.574Z,1024.53
2016-12-07T04:54:16.552Z,1024.46
2016-12-07T04:55:16.535Z,1024.45
2016-12-07T04:56:16.518Z,1024.47
2016-12-07T04:57:16.500Z,1024.46
2016-12-07T04:58:16.483Z,1024.48
2016-12-07T04:59:16.466Z,1024.49
2016-12-07T05:00:16.450Z,1024.47
2016-12-07T05:01:16.433Z,1024.47
2016-12-07T05:02:16.413Z,1024.5
2016-12-07T05:03:16.395Z,1024.5
2016-12-07T05:04:16.379Z,1024.49
2016-12-07T05:05:16.361Z,1024.53
2016-12-07T05:06:16.343Z,1024.5
2016-12-07T05:07:16.326Z,1024.51
2016-12-07T05:08:16.311Z,1024.49
2016-12-07T05:09:16.292Z,1024.45
2016-12-07T05:10:16.278Z,1024.48
2016-12-07T05:11:16.257Z,1024.47
2016-12-07T05:12:16.458Z,1024.45
2016-12-07T05:13:16.235Z,1024.5
2016-12-07T05:14:16.204Z,1024.46
2016-12-07T05:15:16.190Z,1024.42
2016-12-07T05:16:16.169Z,1024.41
2016-12-07T05:17:16.151Z,1024.38
2016-12-07T05:18:16.134Z,1024.37
2016-12-07T05:19:16.117Z,1024.33
2016-12-07T05:20:16.102Z,1024.32
2016-12-07T05:21:16.083Z,1024.33
2016-12-07T05:22:16.065Z,1024.28
2016-12-07T05:23:16.048Z,1024.24
2016-12-07T05:24:16.029Z,1024.26
2016-12-07T05:25:16.011Z,1024.24
2016-12-07T05:26:15.996Z,1024.2
2016-12-07T05:27:16.206Z,1024.23
2016-12-07T05:28:15.960Z,1024.24
2016-12-07T05:29:15.945Z,1024.24
2016-12-07T05:30:15.926Z,1024.25
2016-12-07T05:31:15.907Z,1024.27
2016-12-07T05:32:15.888Z,1024.23
2016-12-07T05:33:15.873Z,1024.21
2016-12-07T05:34:15.859Z,1024.26
2016-12-07T05:35:15.838Z,1024.27
2016-12-07T05:36:15.821Z,1024.29
2016-12-07T05:37:15.804Z,1024.27
2016-12-07T05:38:15.786Z,1024.25
2016-12-07T05:39:15.772Z,1024.22
2016-12-07T05:40:15.754Z,1024.19
2016-12-07T05:41:15.741Z,1024.18
2016-12-07T05:42:15.720Z,1024.19
2016-12-07T05:43:15.706Z,1024.21
2016-12-07T05:44:15.685Z,1024.26
2016-12-07T05:45:15.668Z,1024.28
2016-12-07T05:46:15.650Z,1024.25
2016-12-07T05:47:15.635Z,1024.24
2016-12-07T05:48:15.616Z,1024.25
2016-12-07T05:49:15.599Z,1024.29
2016-12-07T05:50:15.582Z,1024.24
2016-12-07T05:51:15.567Z,1024.24
2016-12-07T05:52:15.549Z,1024.28
2016-12-07T05:53:15.532Z,1024.25
2016-12-07T05:54:15.515Z,1024.29
2016-12-07T05:55:15.501Z,1024.28
2016-12-07T05:56:15.480Z,1024.31
2016-12-07T05:57:15.465Z,1024.32
2016-12-07T05:58:15.448Z,1024.28
2016-12-07T05:59:15.430Z,1024.29
2016-12-07T06:00:15.413Z,1024.27
2016-12-07T06:01:15.396Z,1024.26
2016-12-07T06:02:15.382Z,1024.27
2016-12-07T06:03:15.361Z,1024.29
2016-12-07T06:04:15.344Z,1024.29
2016-12-07T06:05:15.327Z,1024.29
2016-12-07T06:06:15.315Z,1024.31
2016-12-07T06:07:15.296Z,1024.25
2016-12-07T06:08:15.277Z,1024.24
2016-12-07T06:09:15.259Z,1024.27
2016-12-07T06:10:15.244Z,1024.26
2016-12-07T06:11:15.231Z,1024.23
2016-12-07T06:12:15.210Z,1024.26
2016-12-07T06:13:15.195Z,1024.25
2016-12-07T06:14:15.177Z,1024.25
2016-12-07T06:15:15.158Z,1024.26
2016-12-07T06:16:15.143Z,1024.22
2016-12-07T06:17:15.126Z,1024.22
2016-12-07T06:18:15.110Z,1024.23
2016-12-07T06:19:15.093Z,1024.22
2016-12-07T06:20:15.075Z,1024.23
2016-12-07T06:21:15.058Z,1024.23
2016-12-07T06:22:15.045Z,1024.28
2016-12-07T06:23:15.026Z,1024.22
2016-12-07T06:24:15.009Z,1024.23
2016-12-07T06:25:14.992Z,1024.22
2016-12-07T06:26:14.974Z,1024.27
2016-12-07T06:27:14.961Z,1024.24
2016-12-07T06:28:14.941Z,1024.24
2016-12-07T06:29:14.923Z,1024.28
2016-12-07T06:30:14.909Z,1024.28
2016-12-07T06:31:14.890Z,1024.27
2016-12-07T06:32:14.872Z,1024.24
2016-12-07T06:33:14.858Z,1024.26
2016-12-07T06:34:14.840Z,1024.22
2016-12-07T06:35:14.822Z,1024.18
2016-12-07T06:36:14.809Z,1024.17
2016-12-07T06:37:14.788Z,1024.16
2016-12-07T06:38:14.773Z,1024.16
2016-12-07T06:39:14.755Z,1024.19
2016-12-07T06:40:14.741Z,1024.2
2016-12-07T06:41:14.723Z,1024.19
2016-12-07T06:42:14.705Z,1024.19
2016-12-07T06:43:14.692Z,1024.14
2016-12-07T06:44:14.671Z,1024.16
2016-12-07T06:45:14.656Z,1024.12
2016-12-07T06:46:14.688Z,1024.13
2016-12-07T06:47:14.623Z,1024.16
2016-12-07T06:48:14.608Z,1024.13
2016-12-07T06:49:14.589Z,1024.14
2016-12-07T06:50:14.575Z,1024.15
2016-12-07T06:51:14.557Z,1024.18
2016-12-07T06:52:14.541Z,1024.15
2016-12-07T06:53:14.521Z,1024.18
2016-12-07T06:54:14.506Z,1024.2
2016-12-07T06:55:14.490Z,1024.24
2016-12-07T06:56:14.472Z,1024.23
2016-12-07T06:57:14.462Z,1024.25
2016-12-07T06:58:14.443Z,1024.23
2016-12-07T06:59:14.424Z,1024.22
2016-12-07T07:00:14.407Z,1024.23
2016-12-07T07:01:14.393Z,1024.17
2016-12-07T07:02:14.372Z,1024.24
2016-12-07T07:03:14.357Z,1024.22
2016-12-07T07:04:14.339Z,1024.2
2016-12-07T07:05:14.323Z,1024.17
2016-12-07T07:06:14.307Z,1024.19
2016-12-07T07:07:14.290Z,1024.19
2016-12-07T07:08:14.273Z,1024.18
2016-12-07T07:09:14.407Z,1024.17
2016-12-07T07:10:14.242Z,1024.19
2016-12-07T07:11:14.223Z,1024.14
2016-12-07T07:12:14.212Z,1024.19
2016-12-07T07:13:14.191Z,1024.18
2016-12-07T07:14:14.173Z,1024.19
2016-12-07T07:15:14.158Z,1024.2
2016-12-07T07:16:14.141Z,1024.22
2016-12-07T07:17:14.124Z,1024.18
2016-12-07T07:18:14.109Z,1024.22
2016-12-07T07:19:14.092Z,1024.21
2016-12-07T07:20:14.079Z,1024.27
2016-12-07T07:21:14.062Z,1024.27
2016-12-07T07:22:14.042Z,1024.26
2016-12-07T07:23:14.026Z,1024.25
2016-12-07T07:24:14.009Z,1024.25
2016-12-07T07:25:13.997Z,1024.28
2016-12-07T07:26:13.977Z,1024.27
2016-12-07T07:27:13.960Z,1024.32
2016-12-07T07:28:13.941Z,1024.27
2016-12-07T07:29:13.927Z,1024.3
2016-12-07T07:30:13.910Z,1024.33
2016-12-07T07:31:13.895Z,1024.35
2016-12-07T07:32:13.878Z,1024.32
2016-12-07T07:33:13.858Z,1024.33
2016-12-07T07:34:13.845Z,1024.39
2016-12-07T07:35:13.828Z,1024.41
2016-12-07T07:36:13.813Z,1024.41
2016-12-07T07:37:13.795Z,1024.43
2016-12-07T07:38:13.780Z,1024.43
2016-12-07T07:39:13.763Z,1024.46
2016-12-07T07:40:13.749Z,1024.48
2016-12-07T07:41:13.733Z,1024.42
2016-12-07T07:42:13.713Z,1024.46
2016-12-07T07:43:13.698Z,1024.47
2016-12-07T07:44:13.681Z,1024.45
2016-12-07T07:45:13.716Z,1024.46
2016-12-07T07:46:13.648Z,1024.41
2016-12-07T07:47:13.632Z,1024.42
2016-12-07T07:48:13.618Z,1024.41
2016-12-07T07:49:13.599Z,1024.4
2016-12-07T07:50:13.583Z,1024.41
2016-12-07T07:51:13.571Z,1024.45
2016-12-07T07:52:13.551Z,1024.48
2016-12-07T07:53:13.534Z,1024.51
2016-12-07T07:54:13.519Z,1024.49
2016-12-07T07:55:13.503Z,1024.46
2016-12-07T07:56:13.486Z,1024.45
2016-12-07T07:57:13.469Z,1024.51
2016-12-07T07:58:13.454Z,1024.5
2016-12-07T07:59:13.439Z,1024.46
2016-12-07T08:00:13.476Z,1024.47
2016-12-07T08:01:13.405Z,1024.51
2016-12-07T08:02:13.387Z,1024.43
2016-12-07T08:03:13.372Z,1024.44
2016-12-07T08:04:13.358Z,1024.42
2016-12-07T08:05:13.340Z,1024.4
2016-12-07T08:06:13.324Z,1024.43
2016-12-07T08:07:13.307Z,1024.41
2016-12-07T08:08:13.288Z,1024.4
2016-12-07T08:09:13.275Z,1024.43
2016-12-07T08:10:13.268Z,1024.44
2016-12-07T08:11:13.242Z,1024.44
2016-12-07T08:12:13.227Z,1024.43
2016-12-07T08:13:13.210Z,1024.42
2016-12-07T08:14:13.193Z,1024.39
2016-12-07T08:15:13.175Z,1024.37
2016-12-07T08:16:13.161Z,1024.41
2016-12-07T08:17:13.145Z,1024.42
2016-12-07T08:18:13.130Z,1024.4
2016-12-07T08:19:13.111Z,1024.38
2016-12-07T08:20:13.095Z,1024.35
2016-12-07T08:21:13.080Z,1024.39
2016-12-07T08:22:13.074Z,1024.37
2016-12-07T08:23:13.047Z,1024.35
2016-12-07T08:24:13.030Z,1024.4
2016-12-07T08:25:13.016Z,1024.41
2016-12-07T08:26:12.998Z,1024.43
2016-12-07T08:27:12.985Z,1024.5
2016-12-07T08:28:12.966Z,1024.47
2016-12-07T08:29:12.957Z,1024.46
2016-12-07T08:30:12.933Z,1024.49
2016-12-07T08:31:12.916Z,1024.49
2016-12-07T08:32:12.900Z,1024.52
2016-12-07T08:33:12.890Z,1024.5
2016-12-07T08:34:12.868Z,1024.51
2016-12-07T08:35:12.851Z,1024.52
2016-12-07T08:36:12.836Z,1024.54
2016-12-07T08:37:12.819Z,1024.53
2016-12-07T08:38:12.804Z,1024.62
2016-12-07T08:39:12.789Z,1024.59
2016-12-07T08:40:12.773Z,1024.59
2016-12-07T08:41:12.754Z,1024.58
2016-12-07T08:42:12.739Z,1024.61
2016-12-07T08:43:12.723Z,1024.64
2016-12-07T08:44:12.706Z,1024.6
2016-12-07T08:45:12.692Z,1024.61
2016-12-07T08:46:12.676Z,1024.63
2016-12-07T08:47:12.657Z,1024.62
2016-12-07T08:48:12.647Z,1024.6
2016-12-07T08:49:12.627Z,1024.63
2016-12-07T08:50:12.612Z,1024.63
2016-12-07T08:51:12.594Z,1024.62
2016-12-07T08:52:12.577Z,1024.61
2016-12-07T08:53:12.561Z,1024.64
2016-12-07T08:54:12.545Z,1024.59
2016-12-07T08:55:12.532Z,1024.65
2016-12-07T08:56:12.512Z,1024.67
2016-12-07T08:57:12.497Z,1024.65
2016-12-07T08:58:12.482Z,1024.71
2016-12-07T08:59:12.465Z,1024.68
2016-12-07T09:00:12.449Z,1024.63
2016-12-07T09:01:12.432Z,1024.69
2016-12-07T09:02:12.419Z,1024.7
2016-12-07T09:03:12.399Z,1024.69
2016-12-07T09:04:12.384Z,1024.68
2016-12-07T09:05:12.372Z,1024.73
2016-12-07T09:06:12.352Z,1024.74
2016-12-07T09:07:12.335Z,1024.75
2016-12-07T09:08:12.320Z,1024.76
2016-12-07T09:09:12.304Z,1024.81
2016-12-07T09:10:12.288Z,1024.8
2016-12-07T09:11:12.272Z,1024.78
2016-12-07T09:12:12.255Z,1024.79
2016-12-07T09:13:12.239Z,1024.76
2016-12-07T09:14:12.223Z,1024.74
2016-12-07T09:15:12.211Z,1024.74
2016-12-07T09:16:12.192Z,1024.71
2016-12-07T09:17:12.175Z,1024.72
2016-12-07T09:18:12.160Z,1024.76
2016-12-07T09:19:12.144Z,1024.81
2016-12-07T09:20:12.128Z,1024.78
2016-12-07T09:21:12.110Z,1024.8
2016-12-07T09:22:12.097Z,1024.79
2016-12-07T09:23:12.080Z,1024.74
2016-12-07T09:24:12.065Z,1024.75
2016-12-07T09:25:12.045Z,1024.75
2016-12-07T09:26:12.030Z,1024.72
2016-12-07T09:27:12.015Z,1024.71
2016-12-07T09:28:12.002Z,1024.67
2016-12-07T09:29:11.983Z,1024.64
2016-12-07T09:30:11.971Z,1024.68
2016-12-07T09:31:11.952Z,1024.67
2016-12-07T09:32:11.937Z,1024.71
2016-12-07T09:33:11.921Z,1024.7
2016-12-07T09:34:11.905Z,1024.71
2016-12-07T09:35:11.889Z,1024.71
2016-12-07T09:36:11.872Z,1024.72
2016-12-07T09:37:11.855Z,1024.72
2016-12-07T09:38:11.839Z,1024.71
2016-12-07T09:39:11.822Z,1024.75
2016-12-07T09:40:11.810Z,1024.71
2016-12-07T09:41:11.794Z,1024.77
2016-12-07T09:42:11.775Z,1024.78
2016-12-07T09:43:11.762Z,1024.76
2016-12-07T09:44:11.742Z,1024.75
2016-12-07T09:45:11.731Z,1024.78
2016-12-07T09:46:11.712Z,1024.79
2016-12-07T09:47:11.694Z,1024.8
2016-12-07T09:48:11.676Z,1024.74
2016-12-07T09:49:11.663Z,1024.7
2016-12-07T09:50:11.646Z,1024.69
2016-12-07T09:51:11.630Z,1024.68
2016-12-07T09:52:11.615Z,1024.65
2016-12-07T09:53:11.599Z,1024.68
2016-12-07T09:54:11.582Z,1024.66
2016-12-07T09:55:11.567Z,1024.69
2016-12-07T09:56:11.550Z,1024.62
2016-12-07T09:57:11.535Z,1024.62
2016-12-07T09:58:11.518Z,1024.59
2016-12-07T09:59:11.503Z,1024.57
2016-12-07T10:00:11.488Z,1024.58
2016-12-07T10:01:11.470Z,1024.58
2016-12-07T10:02:11.453Z,1024.54
2016-12-07T10:03:11.436Z,1024.58
2016-12-07T10:04:11.427Z,1024.52
2016-12-07T10:05:11.405Z,1024.55
2016-12-07T10:06:11.388Z,1024.54
2016-12-07T10:07:11.373Z,1024.51
2016-12-07T10:08:11.355Z,1024.59
2016-12-07T10:09:11.340Z,1024.59
2016-12-07T10:10:11.323Z,1024.57
2016-12-07T10:11:11.552Z,1024.54
2016-12-07T10:12:11.291Z,1024.53
2016-12-07T10:13:11.275Z,1024.55
2016-12-07T10:14:11.260Z,1024.57
2016-12-07T10:15:11.241Z,1024.54
2016-12-07T10:16:11.226Z,1024.53
2016-12-07T10:17:11.209Z,1024.49
2016-12-07T10:18:11.194Z,1024.46
2016-12-07T10:19:11.176Z,1024.49
2016-12-07T10:20:11.161Z,1024.49
2016-12-07T10:21:11.144Z,1024.52
2016-12-07T10:22:11.129Z,1024.49
2016-12-07T10:23:11.114Z,1024.47
2016-12-07T10:24:11.098Z,1024.49
2016-12-07T10:25:11.080Z,1024.48
2016-12-07T10:26:11.112Z,1024.49
2016-12-07T10:27:11.045Z,1024.52
2016-12-07T10:28:11.030Z,1024.46
2016-12-07T10:29:11.014Z,1024.52
2016-12-07T10:30:10.998Z,1024.52
2016-12-07T10:31:10.982Z,1024.53
2016-12-07T10:32:10.967Z,1024.43
2016-12-07T10:33:10.953Z,1024.42
2016-12-07T10:34:10.932Z,1024.46
2016-12-07T10:35:10.919Z,1024.46
2016-12-07T10:36:10.900Z,1024.41
2016-12-07T10:37:10.885Z,1024.43
2016-12-07T10:38:10.868Z,1024.39
2016-12-07T10:39:10.853Z,1024.42
2016-12-07T10:40:10.836Z,1024.39
2016-12-07T10:41:10.820Z,1024.36
2016-12-07T10:42:10.805Z,1024.35
2016-12-07T10:43:10.786Z,1024.33
2016-12-07T10:44:10.769Z,1024.33
2016-12-07T10:45:10.754Z,1024.28
2016-12-07T10:46:10.738Z,1024.24
2016-12-07T10:47:10.723Z,1024.22
2016-12-07T10:48:10.709Z,1024.19
2016-12-07T10:49:10.689Z,1024.21
2016-12-07T10:50:10.676Z,1024.14
2016-12-07T10:51:10.658Z,1024.15
2016-12-07T10:52:10.641Z,1024.11
2016-12-07T10:53:10.630Z,1024.15
2016-12-07T10:54:10.609Z,1024.16
2016-12-07T10:55:10.593Z,1024.11
2016-12-07T10:56:10.577Z,1024.1
2016-12-07T10:57:10.568Z,1024.11
2016-12-07T10:58:10.546Z,1024.07
2016-12-07T10:59:10.531Z,1024.07
2016-12-07T11:00:10.511Z,1024.08
2016-12-07T11:01:10.496Z,1024.07
2016-12-07T11:02:10.479Z,1024.03
2016-12-07T11:03:10.464Z,1023.99
2016-12-07T11:04:10.447Z,1023.96
2016-12-07T11:05:10.431Z,1023.98
2016-12-07T11:06:10.417Z,1023.93
2016-12-07T11:07:10.411Z,1023.96
2016-12-07T11:08:10.386Z,1023.91
2016-12-07T11:09:10.366Z,1023.87
2016-12-07T11:10:10.357Z,1023.89
2016-12-07T11:11:10.334Z,1023.87
2016-12-07T11:12:10.319Z,1023.86
2016-12-07T11:13:10.306Z,1023.87
2016-12-07T11:14:10.529Z,1023.82
2016-12-07T11:15:10.318Z,1023.84
2016-12-07T11:16:10.262Z,1023.82
2016-12-07T11:17:10.288Z,1023.85
2016-12-07T11:18:10.233Z,1023.87
2016-12-07T11:19:10.214Z,1023.85
2016-12-07T11:20:10.204Z,1023.8
2016-12-07T11:21:10.196Z,1023.82
2016-12-07T11:22:10.157Z,1023.8
2016-12-07T11:23:10.142Z,1023.78
2016-12-07T11:24:10.129Z,1023.76
2016-12-07T11:25:10.113Z,1023.76
2016-12-07T11:26:10.095Z,1023.76
2016-12-07T11:27:10.077Z,1023.73
2016-12-07T11:28:10.062Z,1023.66
2016-12-07T11:29:10.046Z,1023.62
2016-12-07T11:30:10.028Z,1023.61
2016-12-07T11:31:10.012Z,1023.59
2016-12-07T11:32:09.999Z,1023.59
2016-12-07T11:33:09.980Z,1023.49
2016-12-07T11:34:09.965Z,1023.49
2016-12-07T11:35:09.950Z,1023.55
2016-12-07T11:36:09.934Z,1023.48
2016-12-07T11:37:09.915Z,1023.49
2016-12-07T11:38:09.900Z,1023.48
2016-12-07T11:39:09.884Z,1023.47
2016-12-07T11:40:09.868Z,1023.43
2016-12-07T11:41:09.855Z,1023.4
2016-12-07T11:42:09.836Z,1023.37
2016-12-07T11:43:09.822Z,1023.38
2016-12-07T11:44:09.803Z,1023.36
2016-12-07T11:45:09.790Z,1023.4
2016-12-07T11:46:09.773Z,1023.39
2016-12-07T11:47:09.756Z,1023.41
2016-12-07T11:48:09.742Z,1023.44
2016-12-07T11:49:09.723Z,1023.45
2016-12-07T11:50:09.708Z,1023.45
2016-12-07T11:51:09.703Z,1023.47
2016-12-07T11:52:09.677Z,1023.44
2016-12-07T11:53:09.660Z,1023.45
2016-12-07T11:54:09.645Z,1023.49
2016-12-07T11:55:09.626Z,1023.46
2016-12-07T11:56:09.618Z,1023.41
2016-12-07T11:57:09.596Z,1023.43
2016-12-07T11:58:09.579Z,1023.36
2016-12-07T11:59:09.563Z,1023.36
2016-12-07T12:00:09.546Z,1023.34
2016-12-07T12:01:09.531Z,1023.32
2016-12-07T12:02:09.516Z,1023.27
2016-12-07T12:03:09.498Z,1023.28
2016-12-07T12:04:09.484Z,1023.32
2016-12-07T12:05:09.467Z,1023.32
2016-12-07T12:06:09.451Z,1023.3
2016-12-07T12:07:09.433Z,1023.33